createdAt,value
2018-09-05T00:00:20.306Z,990.86
2018-09-05T00:01:20.247Z,990.86
2018-09-05T00:02:20.257Z,990.89
2018-09-05T00:03:20.313Z,990.90
2018-09-05T00:04:20.324Z,990.93
2018-09-05T00:05:20.207Z,990.88
2018-09-05T00:06:20.198Z,990.95
2018-09-05T00:07:20.207Z,990.93
2018-09-05T00:08:20.178Z,990.91
2018-09-05T00:09:20.195Z,990.88
2018-09-05T00:10:20.156Z,990.94
2018-09-05T00:11:20.193Z,990.93
2018-09-05T00:12:20.145Z,990.95
2018-09-05T00:13:20.131Z,990.90
2018-09-05T00:14:20.162Z,990.95
2018-09-05T00:15:20.105Z,990.96
2018-09-05T00:16:20.104Z,990.90
2018-09-05T00:17:20.097Z,990.93
2018-09-05T00:18:20.087Z,990.92
2018-09-05T00:19:20.134Z,990.95
2018-09-05T00:20:20.051Z,990.96
2018-09-05T00:21:20.050Z,991.00
2018-09-05T00:22:20.076Z,990.91
2018-09-05T00:23:20.017Z,990.94
2018-09-05T00:24:20.007Z,990.96
2018-09-05T00:25:20.008Z,990.96
2018-09-05T00:26:20.042Z,991.02
2018-09-05T00:27:19.996Z,991.02
2018-09-05T00:28:19.959Z,991.05
2018-09-05T00:29:19.965Z,991.06
2018-09-05T00:30:19.946Z,991.04
2018-09-05T00:31:19.923Z,991.06
2018-09-05T00:32:19.959Z,991.05
2018-09-05T00:33:19.972Z,991.01
2018-09-05T00:34:19.891Z,991.05
2018-09-05T00:35:19.895Z,991.08
2018-09-05T00:36:19.877Z,991.04
2018-09-05T00:37:19.887Z,991.06
2018-09-05T00:38:19.848Z,991.04
2018-09-05T00:39:19.895Z,991.06
2018-09-05T00:40:19.825Z,991.06
2018-09-05T00:41:19.819Z,991.07
2018-09-05T00:42:19.948Z,991.12
2018-09-05T00:43:19.801Z,991.10
2018-09-05T00:44:19.787Z,991.08
2018-09-05T00:45:19.888Z,991.12
2018-09-05T00:46:19.774Z,991.11
2018-09-05T00:47:19.780Z,991.10
2018-09-05T00:48:19.751Z,991.12
2018-09-05T00:49:19.737Z,991.18
2018-09-05T00:50:19.729Z,991.18
2018-09-05T00:51:19.795Z,991.20
2018-09-05T00:52:19.729Z,991.17
2018-09-05T00:53:19.736Z,991.17
2018-09-05T00:54:19.696Z,991.15
2018-09-05T00:55:19.677Z,991.13
2018-09-05T00:56:19.666Z,991.23
2018-09-05T00:57:19.677Z,991.20
2018-09-05T00:58:19.637Z,991.18
2018-09-05T00:59:19.697Z,991.16
2018-09-05T01:00:19.621Z,991.15
2018-09-05T01:01:19.624Z,991.16
2018-09-05T01:02:19.620Z,991.19
2018-09-05T01:03:19.587Z,991.18
2018-09-05T01:04:19.574Z,991.13
2018-09-05T01:05:19.603Z,991.20
2018-09-05T01:06:19.561Z,991.18
2018-09-05T01:07:19.552Z,991.19
2018-09-05T01:08:19.630Z,991.16
2018-09-05T01:09:19.521Z,991.16
2018-09-05T01:10:19.512Z,991.22
2018-09-05T01:11:19.496Z,991.23
2018-09-05T01:12:19.483Z,991.24
2018-09-05T01:13:19.488Z,991.24
2018-09-05T01:14:19.522Z,991.22
2018-09-05T01:15:19.450Z,991.26
2018-09-05T01:16:19.461Z,991.25
2018-09-05T01:17:19.423Z,991.31
2018-09-05T01:18:19.430Z,991.27
2018-09-05T01:19:19.405Z,991.27
2018-09-05T01:20:19.452Z,991.28
2018-09-05T01:21:19.385Z,991.29
2018-09-05T01:22:19.378Z,991.27
2018-09-05T01:23:19.380Z,991.32
2018-09-05T01:24:19.503Z,991.31
2018-09-05T01:25:19.346Z,991.27
2018-09-05T01:26:19.342Z,991.30
2018-09-05T01:27:19.384Z,991.28
2018-09-05T01:28:19.331Z,991.37
2018-09-05T01:29:19.300Z,991.34
2018-09-05T01:30:19.301Z,991.34
2018-09-05T01:31:19.281Z,991.31
2018-09-05T01:32:19.270Z,991.32
2018-09-05T01:33:19.356Z,991.37
2018-09-05T01:34:19.275Z,991.38
2018-09-05T01:35:19.234Z,991.38
2018-09-05T01:36:19.221Z,991.41
2018-09-05T01:37:19.215Z,991.37
2018-09-05T01:38:19.225Z,991.40
2018-09-05T01:39:19.322Z,991.37
2018-09-05T01:40:19.181Z,991.39
2018-09-05T01:41:19.168Z,991.37
2018-09-05T01:42:19.159Z,991.43
2018-09-05T01:43:19.178Z,991.41
2018-09-05T01:44:19.147Z,991.40
2018-09-05T01:45:19.234Z,991.39
2018-09-05T01:46:19.118Z,991.37
2018-09-05T01:47:19.110Z,991.39
2018-09-05T01:48:19.114Z,991.41
2018-09-05T01:49:19.080Z,991.38
2018-09-05T01:50:19.072Z,991.41
2018-09-05T01:51:19.118Z,991.43
2018-09-05T01:52:19.059Z,991.45
2018-09-05T01:53:19.066Z,991.42
2018-09-05T01:54:19.072Z,991.43
2018-09-05T01:55:19.026Z,991.44
2018-09-05T01:56:19.015Z,991.44
2018-09-05T01:57:18.994Z,991.44
2018-09-05T01:58:19.092Z,991.43
2018-09-05T01:59:18.984Z,991.40
2018-09-05T02:00:18.966Z,991.43
2018-09-05T02:01:18.948Z,991.49
2018-09-05T02:02:18.950Z,991.53
2018-09-05T02:03:19.006Z,991.53
2018-09-05T02:04:18.935Z,991.56
2018-09-05T02:05:19.011Z,991.54
2018-09-05T02:06:18.923Z,991.51
2018-09-05T02:07:18.888Z,991.54
2018-09-05T02:08:18.931Z,991.56
2018-09-05T02:09:18.873Z,991.53
2018-09-05T02:10:18.912Z,991.52
2018-09-05T02:11:18.851Z,991.50
2018-09-05T02:12:18.836Z,991.50
2018-09-05T02:13:18.905Z,991.51
2018-09-05T02:14:18.828Z,991.48
2018-09-05T02:15:18.802Z,991.47
2018-09-05T02:16:18.796Z,991.48
2018-09-05T02:17:18.793Z,991.47
2018-09-05T02:18:18.854Z,991.48
2018-09-05T02:19:18.789Z,991.48
2018-09-05T02:20:18.751Z,991.46
2018-09-05T02:21:18.749Z,991.47
2018-09-05T02:22:18.725Z,991.45
2018-09-05T02:23:18.729Z,991.42
2018-09-05T02:24:18.724Z,991.41
2018-09-05T02:25:18.693Z,991.37
2018-09-05T02:26:18.738Z,991.45
2018-09-05T02:27:18.682Z,991.37
2018-09-05T02:28:18.683Z,991.37
2018-09-05T02:29:18.667Z,991.30
2018-09-05T02:30:18.654Z,991.31
2018-09-05T02:31:18.641Z,991.29
2018-09-05T02:32:18.637Z,991.34
2018-09-05T02:33:18.637Z,991.28
2018-09-05T02:34:18.626Z,991.27
2018-09-05T02:35:18.620Z,991.26
2018-09-05T02:36:18.588Z,991.24
2018-09-05T02:37:18.629Z,991.23
2018-09-05T02:38:18.552Z,991.23
2018-09-05T02:39:18.587Z,991.23
2018-09-05T02:40:18.580Z,991.24
2018-09-05T02:41:18.531Z,991.22
2018-09-05T02:42:18.583Z,991.25
2018-09-05T02:43:18.547Z,991.24
2018-09-05T02:44:18.514Z,991.24
2018-09-05T02:45:18.572Z,991.26
2018-09-05T02:46:18.478Z,991.21
2018-09-05T02:47:18.465Z,991.24
2018-09-05T02:48:18.460Z,991.19
2018-09-05T02:49:18.509Z,991.13
2018-09-05T02:50:18.439Z,991.17
2018-09-05T02:51:18.418Z,991.20
2018-09-05T02:52:18.418Z,991.11
2018-09-05T02:53:18.392Z,991.13
2018-09-05T02:54:18.421Z,991.11
2018-09-05T02:55:18.394Z,991.12
2018-09-05T02:56:18.456Z,991.03
2018-09-05T02:57:18.355Z,991.05
2018-09-05T02:58:18.356Z,990.98
2018-09-05T02:59:18.355Z,991.02
2018-09-05T03:00:18.353Z,991.02
2018-09-05T03:01:18.333Z,990.99
2018-09-05T03:02:18.302Z,990.98
2018-09-05T03:03:18.286Z,990.97
2018-09-05T03:04:18.414Z,990.97
2018-09-05T03:05:18.271Z,990.97
2018-09-05T03:06:18.252Z,990.95
2018-09-05T03:07:18.244Z,990.99
2018-09-05T03:08:18.239Z,990.97
2018-09-05T03:09:18.222Z,990.98
2018-09-05T03:10:18.266Z,990.98
2018-09-05T03:11:18.210Z,990.97
2018-09-05T03:12:18.195Z,990.97
2018-09-05T03:13:18.185Z,991.06
2018-09-05T03:14:18.165Z,990.97
2018-09-05T03:15:18.183Z,991.00
2018-09-05T03:16:18.220Z,990.98
2018-09-05T03:17:18.140Z,990.96
2018-09-05T03:18:18.124Z,991.00
2018-09-05T03:19:18.118Z,991.03
2018-09-05T03:20:18.138Z,990.97
2018-09-05T03:21:18.111Z,990.97
2018-09-05T03:22:18.082Z,990.96
2018-09-05T03:23:18.144Z,990.97
2018-09-05T03:24:18.073Z,990.94
2018-09-05T03:25:18.060Z,990.92
2018-09-05T03:26:18.039Z,990.90
2018-09-05T03:27:18.048Z,990.89
2018-09-05T03:28:18.012Z,990.92
2018-09-05T03:29:18.058Z,990.93
2018-09-05T03:30:18.018Z,990.91
2018-09-05T03:31:17.980Z,990.95
2018-09-05T03:32:18.069Z,990.94
2018-09-05T03:33:17.965Z,990.94
2018-09-05T03:34:17.958Z,990.92
2018-09-05T03:35:18.020Z,990.94
2018-09-05T03:36:17.929Z,990.95
2018-09-05T03:37:17.920Z,990.96
2018-09-05T03:38:17.907Z,990.98
2018-09-05T03:39:17.896Z,990.94
2018-09-05T03:40:17.908Z,990.95
2018-09-05T03:41:17.910Z,990.92
2018-09-05T03:42:17.858Z,990.91
2018-09-05T03:43:17.849Z,990.90
2018-09-05T03:44:17.838Z,990.90
2018-09-05T03:45:17.839Z,990.90
2018-09-05T03:46:17.814Z,990.92
2018-09-05T03:47:17.838Z,990.93
2018-09-05T03:48:17.791Z,990.91
2018-09-05T03:49:17.780Z,990.94
2018-09-05T03:50:17.785Z,990.93
2018-09-05T03:51:17.766Z,990.94
2018-09-05T03:52:17.748Z,990.89
2018-09-05T03:53:17.773Z,990.93
2018-09-05T03:54:17.727Z,990.89
2018-09-05T03:55:17.735Z,990.89
2018-09-05T03:56:17.707Z,990.93
2018-09-05T03:57:17.699Z,990.88
2018-09-05T03:58:17.682Z,990.88
2018-09-05T03:59:17.714Z,990.86
2018-09-05T04:00:17.675Z,990.89
2018-09-05T04:01:17.649Z,990.91
2018-09-05T04:02:17.663Z,990.90
2018-09-05T04:03:17.630Z,990.90
2018-09-05T04:04:17.618Z,990.87
2018-09-05T04:05:17.664Z,990.89
2018-09-05T04:06:17.640Z,990.89
2018-09-05T04:07:17.681Z,990.85
2018-09-05T04:08:17.574Z,990.85
2018-09-05T04:09:17.564Z,990.88
2018-09-05T04:10:17.613Z,990.90
2018-09-05T04:11:17.583Z,990.92
2018-09-05T04:12:17.600Z,990.93
2018-09-05T04:13:17.521Z,990.92
2018-09-05T04:14:17.510Z,990.94
2018-09-05T04:15:17.517Z,990.94
2018-09-05T04:16:17.486Z,990.90
2018-09-05T04:17:17.505Z,990.89
2018-09-05T04:18:17.470Z,990.94
2018-09-05T04:19:17.459Z,990.92
2018-09-05T04:20:17.503Z,990.92
2018-09-05T04:21:17.438Z,990.97
2018-09-05T04:22:17.422Z,990.97
2018-09-05T04:23:17.431Z,990.96
2018-09-05T04:24:17.401Z,990.92
2018-09-05T04:25:17.391Z,990.97
2018-09-05T04:26:17.395Z,990.92
2018-09-05T04:27:17.369Z,990.95
2018-09-05T04:28:17.359Z,990.95
2018-09-05T04:29:17.371Z,990.95
2018-09-05T04:30:17.341Z,990.96
2018-09-05T04:31:17.352Z,990.95
2018-09-05T04:32:17.313Z,990.98
2018-09-05T04:33:17.303Z,990.93
2018-09-05T04:34:17.295Z,990.93
2018-09-05T04:35:17.320Z,991.00
2018-09-05T04:36:17.286Z,990.97
2018-09-05T04:37:17.261Z,990.92
2018-09-05T04:38:17.251Z,990.92
2018-09-05T04:39:17.241Z,990.95
2018-09-05T04:40:17.230Z,990.94
2018-09-05T04:41:17.280Z,990.98
2018-09-05T04:42:17.207Z,991.00
2018-09-05T04:43:17.194Z,991.03
2018-09-05T04:44:17.187Z,991.08
2018-09-05T04:45:17.301Z,991.11
2018-09-05T04:46:17.179Z,991.15
2018-09-05T04:47:17.198Z,991.12
2018-09-05T04:48:17.192Z,991.15
2018-09-05T04:49:17.155Z,991.13
2018-09-05T04:50:17.120Z,991.14
2018-09-05T04:51:17.163Z,991.18
2018-09-05T04:52:17.099Z,991.20
2018-09-05T04:53:17.119Z,991.19
2018-09-05T04:54:17.076Z,991.19
2018-09-05T04:55:17.066Z,991.20
2018-09-05T04:56:17.073Z,991.20
2018-09-05T04:57:17.055Z,991.23
2018-09-05T04:58:17.066Z,991.23
2018-09-05T04:59:17.090Z,991.27
2018-09-05T05:00:17.017Z,991.26
2018-09-05T05:01:17.020Z,991.29
2018-09-05T05:02:16.993Z,991.28
2018-09-05T05:03:16.983Z,991.33
2018-09-05T05:04:16.969Z,991.46
2018-09-05T05:05:17.000Z,991.37
2018-09-05T05:06:16.968Z,991.43
2018-09-05T05:07:16.998Z,991.42
2018-09-05T05:08:16.928Z,991.42
2018-09-05T05:09:16.919Z,991.42
2018-09-05T05:10:16.952Z,991.43
2018-09-05T05:11:16.946Z,991.47
2018-09-05T05:12:16.930Z,991.43
2018-09-05T05:13:16.875Z,991.43
2018-09-05T05:14:16.865Z,991.44
2018-09-05T05:15:16.857Z,991.48
2018-09-05T05:16:16.847Z,991.46
2018-09-05T05:17:16.848Z,991.44
2018-09-05T05:18:16.875Z,991.50
2018-09-05T05:19:16.813Z,991.53
2018-09-05T05:20:16.805Z,991.50
2018-09-05T05:21:16.790Z,991.59
2018-09-05T05:22:16.796Z,991.60
2018-09-05T05:23:16.770Z,991.58
2018-09-05T05:24:16.803Z,991.59
2018-09-05T05:25:16.750Z,991.57
2018-09-05T05:26:16.739Z,991.60
2018-09-05T05:27:16.745Z,991.61
2018-09-05T05:28:16.715Z,991.62
2018-09-05T05:29:16.708Z,991.65
2018-09-05T05:30:16.730Z,991.62
2018-09-05T05:31:16.686Z,991.62
2018-09-05T05:32:16.689Z,991.59
2018-09-05T05:33:16.663Z,991.62
2018-09-05T05:34:16.653Z,991.61
2018-09-05T05:35:16.641Z,991.60
2018-09-05T05:36:16.666Z,991.58
2018-09-05T05:37:16.633Z,991.61
2018-09-05T05:38:16.611Z,991.61
2018-09-05T05:39:16.599Z,991.62
2018-09-05T05:40:16.615Z,991.65
2018-09-05T05:41:16.581Z,991.64
2018-09-05T05:42:16.619Z,991.65
2018-09-05T05:43:16.557Z,991.67
2018-09-05T05:44:16.548Z,991.73
2018-09-05T05:45:16.535Z,991.70
2018-09-05T05:46:16.527Z,991.74
2018-09-05T05:47:16.531Z,991.68
2018-09-05T05:48:16.534Z,991.73
2018-09-05T05:49:16.493Z,991.74
2018-09-05T05:50:16.481Z,991.75
2018-09-05T05:51:16.474Z,991.71
2018-09-05T05:52:16.517Z,991.71
2018-09-05T05:53:16.449Z,991.74
2018-09-05T05:54:16.467Z,991.77
2018-09-05T05:55:16.429Z,991.74
2018-09-05T05:56:16.421Z,991.76
2018-09-05T05:57:16.421Z,991.81
2018-09-05T05:58:16.395Z,991.79
2018-09-05T05:59:16.389Z,991.75
2018-09-05T06:00:16.395Z,991.86
2018-09-05T06:01:16.477Z,991.80
2018-09-05T06:02:16.367Z,991.84
2018-09-05T06:03:16.348Z,991.82
2018-09-05T06:04:16.333Z,991.86
2018-09-05T06:05:16.322Z,991.86
2018-09-05T06:06:16.488Z,991.84
2018-09-05T06:07:16.387Z,991.85
2018-09-05T06:08:16.292Z,991.78
2018-09-05T06:09:16.281Z,991.77
2018-09-05T06:10:16.269Z,991.77
2018-09-05T06:11:16.256Z,991.73
2018-09-05T06:12:16.243Z,991.77
2018-09-05T06:13:16.295Z,991.81
2018-09-05T06:14:16.223Z,991.74
2018-09-05T06:15:16.213Z,991.83
2018-09-05T06:16:16.203Z,991.80
2018-09-05T06:17:16.194Z,991.86
2018-09-05T06:18:16.224Z,991.90
2018-09-05T06:19:16.215Z,991.86
2018-09-05T06:20:16.159Z,991.89
2018-09-05T06:21:16.148Z,991.87
2018-09-05T06:22:16.139Z,991.94
2018-09-05T06:23:16.140Z,991.92
2018-09-05T06:24:16.118Z,991.88
2018-09-05T06:25:16.124Z,991.90
2018-09-05T06:26:16.097Z,991.89
2018-09-05T06:27:16.083Z,991.92
2018-09-05T06:28:16.092Z,991.88
2018-09-05T06:29:16.061Z,991.89
2018-09-05T06:30:16.065Z,991.87
2018-09-05T06:31:16.375Z,991.82
2018-09-05T06:32:16.035Z,991.85
2018-09-05T06:33:16.028Z,991.91
2018-09-05T06:34:16.067Z,991.90
2018-09-05T06:35:15.996Z,991.90
2018-09-05T06:36:15.984Z,991.88
2018-09-05T06:37:16.006Z,991.90
2018-09-05T06:38:15.987Z,991.90
2018-09-05T06:39:15.951Z,991.93
2018-09-05T06:40:15.943Z,991.93
2018-09-05T06:41:15.929Z,991.92
2018-09-05T06:42:15.919Z,991.91
2018-09-05T06:43:15.958Z,991.92
2018-09-05T06:44:15.901Z,991.91
2018-09-05T06:45:15.893Z,991.92
2018-09-05T06:46:15.881Z,991.91
2018-09-05T06:47:15.876Z,991.93
2018-09-05T06:48:15.869Z,991.96
2018-09-05T06:49:15.889Z,991.91
2018-09-05T06:50:15.833Z,991.92
2018-09-05T06:51:15.857Z,991.91
2018-09-05T06:52:15.812Z,991.92
2018-09-05T06:53:15.813Z,991.83
2018-09-05T06:54:15.787Z,991.87
2018-09-05T06:55:15.850Z,991.87
2018-09-05T06:56:15.766Z,991.83
2018-09-05T06:57:15.759Z,991.82
2018-09-05T06:58:15.785Z,991.80
2018-09-05T06:59:15.739Z,991.82
2018-09-05T07:00:15.766Z,991.83
2018-09-05T07:01:15.747Z,991.82
2018-09-05T07:02:15.705Z,991.79
2018-09-05T07:03:15.709Z,991.78
2018-09-05T07:04:15.683Z,991.78
2018-09-05T07:05:15.672Z,991.75
2018-09-05T07:06:15.661Z,991.75
2018-09-05T07:07:15.675Z,991.80
2018-09-05T07:08:15.656Z,991.74
2018-09-05T07:09:15.644Z,991.74
2018-09-05T07:10:15.627Z,991.72
2018-09-05T07:11:15.606Z,991.70
2018-09-05T07:12:15.598Z,991.75
2018-09-05T07:13:15.733Z,991.73
2018-09-05T07:14:15.653Z,991.71
2018-09-05T07:15:15.572Z,991.67
2018-09-05T07:16:15.552Z,991.73
2018-09-05T07:17:15.542Z,991.72
2018-09-05T07:18:15.592Z,991.74
2018-09-05T07:19:15.535Z,991.75
2018-09-05T07:20:15.537Z,991.75
2018-09-05T07:21:15.574Z,991.77
2018-09-05T07:22:15.487Z,991.74
2018-09-05T07:23:15.476Z,991.76
2018-09-05T07:24:15.484Z,991.76
2018-09-05T07:25:15.456Z,991.76
2018-09-05T07:26:15.481Z,991.75
2018-09-05T07:27:15.432Z,991.76
2018-09-05T07:28:15.423Z,991.75
2018-09-05T07:29:15.429Z,991.73
2018-09-05T07:30:15.412Z,991.76
2018-09-05T07:31:15.391Z,991.71
2018-09-05T07:32:15.408Z,991.72
2018-09-05T07:33:15.369Z,991.70
2018-09-05T07:34:15.373Z,991.70
2018-09-05T07:35:15.348Z,991.68
2018-09-05T07:36:15.341Z,991.67
2018-09-05T07:37:15.326Z,991.68
2018-09-05T07:38:15.353Z,991.73
2018-09-05T07:39:15.322Z,991.71
2018-09-05T07:40:15.299Z,991.70
2018-09-05T07:41:15.283Z,991.74
2018-09-05T07:42:15.272Z,991.72
2018-09-05T07:43:15.261Z,991.73
2018-09-05T07:44:15.310Z,991.77
2018-09-05T07:45:15.241Z,991.75
2018-09-05T07:46:15.230Z,991.81
2018-09-05T07:47:15.219Z,991.77
2018-09-05T07:48:15.212Z,991.77
2018-09-05T07:49:15.226Z,991.76
2018-09-05T07:50:15.219Z,991.73
2018-09-05T07:51:15.176Z,991.73
2018-09-05T07:52:15.200Z,991.73
2018-09-05T07:53:15.155Z,991.72
2018-09-05T07:54:15.144Z,991.74
2018-09-05T07:55:15.200Z,991.74
2018-09-05T07:56:15.150Z,991.74
2018-09-05T07:57:15.161Z,991.77
2018-09-05T07:58:15.100Z,991.77
2018-09-05T07:59:15.090Z,991.76
2018-09-05T08:00:15.093Z,991.78
2018-09-05T08:01:15.070Z,991.70
2018-09-05T08:02:15.090Z,991.75
2018-09-05T08:03:15.049Z,991.81
2018-09-05T08:04:15.036Z,991.75
2018-09-05T08:05:15.041Z,991.76
2018-09-05T08:06:15.016Z,991.74
2018-09-05T08:07:15.006Z,991.74
2018-09-05T08:08:15.021Z,991.77
2018-09-05T08:09:14.991Z,991.77
2018-09-05T08:10:14.991Z,991.72
2018-09-05T08:11:14.962Z,991.78
2018-09-05T08:12:14.956Z,991.74
2018-09-05T08:13:14.942Z,991.72
2018-09-05T08:14:14.961Z,991.74
2018-09-05T08:15:14.934Z,991.75
2018-09-05T08:16:14.906Z,991.70
2018-09-05T08:17:14.897Z,991.70
2018-09-05T08:18:15.036Z,991.67
2018-09-05T08:19:14.877Z,991.67
2018-09-05T08:20:14.906Z,991.63
2018-09-05T08:21:14.856Z,991.69
2018-09-05T08:22:14.844Z,991.66
2018-09-05T08:23:14.834Z,991.70
2018-09-05T08:24:14.892Z,991.67
2018-09-05T08:25:14.849Z,991.69
2018-09-05T08:26:14.883Z,991.69
2018-09-05T08:27:14.796Z,991.69
2018-09-05T08:28:14.789Z,991.64
2018-09-05T08:29:14.857Z,991.66
2018-09-05T08:30:14.771Z,991.67
2018-09-05T08:31:14.748Z,991.63
2018-09-05T08:32:14.765Z,991.66
2018-09-05T08:33:14.727Z,991.63
2018-09-05T08:34:14.755Z,991.66
2018-09-05T08:35:14.896Z,991.63
2018-09-05T08:36:14.927Z,991.62
2018-09-05T08:37:14.848Z,991.67
2018-09-05T08:38:14.755Z,991.70
2018-09-05T08:39:14.665Z,991.66
2018-09-05T08:40:14.704Z,991.63
2018-09-05T08:41:14.685Z,991.65
2018-09-05T08:42:14.655Z,991.67
2018-09-05T08:43:14.687Z,991.66
2018-09-05T08:44:14.802Z,991.64
2018-09-05T08:45:14.807Z,991.66
2018-09-05T08:46:14.646Z,991.58
2018-09-05T08:47:14.629Z,991.61
2018-09-05T08:48:14.668Z,991.61
2018-09-05T08:49:14.566Z,991.60
2018-09-05T08:50:14.633Z,991.58
2018-09-05T08:51:14.573Z,991.61
2018-09-05T08:52:14.566Z,991.62
2018-09-05T08:53:14.518Z,991.71
2018-09-05T08:54:14.531Z,991.66
2018-09-05T08:55:14.578Z,991.65
2018-09-05T08:56:14.504Z,991.65
2018-09-05T08:57:14.503Z,991.65
2018-09-05T08:58:14.463Z,991.63
2018-09-05T08:59:14.521Z,991.57
2018-09-05T09:00:14.442Z,991.62
2018-09-05T09:01:14.443Z,991.66
2018-09-05T09:02:14.465Z,991.57
2018-09-05T09:03:14.425Z,991.58
2018-09-05T09:04:14.409Z,991.55
2018-09-05T09:05:14.451Z,991.54
2018-09-05T09:06:14.426Z,991.54
2018-09-05T09:07:14.379Z,991.55
2018-09-05T09:08:14.369Z,991.55
2018-09-05T09:09:14.368Z,991.58
2018-09-05T09:10:14.349Z,991.54
2018-09-05T09:11:14.434Z,991.56
2018-09-05T09:12:14.350Z,991.52
2018-09-05T09:13:14.304Z,991.52
2018-09-05T09:14:14.313Z,991.49
2018-09-05T09:15:14.300Z,991.51
2018-09-05T09:16:14.313Z,991.51
2018-09-05T09:17:14.291Z,991.49
2018-09-05T09:18:14.253Z,991.45
2018-09-05T09:19:14.266Z,991.45
2018-09-05T09:20:14.259Z,991.43
2018-09-05T09:21:14.246Z,991.42
2018-09-05T09:22:14.213Z,991.40
2018-09-05T09:23:14.199Z,991.45
2018-09-05T09:24:14.191Z,991.40
2018-09-05T09:25:14.195Z,991.41
2018-09-05T09:26:14.202Z,991.36
2018-09-05T09:27:14.193Z,991.40
2018-09-05T09:28:14.232Z,991.33
2018-09-05T09:29:14.155Z,991.35
2018-09-05T09:30:14.131Z,991.35
2018-09-05T09:31:14.215Z,991.33
2018-09-05T09:32:14.164Z,991.30
2018-09-05T09:33:14.098Z,991.31
2018-09-05T09:34:14.107Z,991.27
2018-09-05T09:35:14.114Z,991.29
2018-09-05T09:36:14.067Z,991.28
2018-09-05T09:37:14.102Z,991.24
2018-09-05T09:38:14.045Z,991.27
2018-09-05T09:39:14.035Z,991.24
2018-09-05T09:40:14.025Z,991.20
2018-09-05T09:41:14.014Z,991.18
2018-09-05T09:42:14.027Z,991.19
2018-09-05T09:43:14.063Z,991.17
2018-09-05T09:44:14.003Z,991.18
2018-09-05T09:45:13.972Z,991.21
2018-09-05T09:46:13.967Z,991.18
2018-09-05T09:47:14.029Z,991.19
2018-09-05T09:48:13.955Z,991.18
2018-09-05T09:49:13.942Z,991.16
2018-09-05T09:50:13.928Z,991.15
2018-09-05T09:51:13.952Z,991.13
2018-09-05T09:52:13.923Z,991.08
2018-09-05T09:53:13.923Z,991.04
2018-09-05T09:54:13.884Z,991.05
2018-09-05T09:55:13.887Z,991.01
2018-09-05T09:56:13.888Z,991.04
2018-09-05T09:57:13.891Z,991.09
2018-09-05T09:58:13.842Z,991.08
2018-09-05T09:59:13.830Z,991.05
2018-09-05T10:00:13.841Z,991.05
2018-09-05T10:01:13.893Z,991.02
2018-09-05T10:02:13.817Z,991.04
2018-09-05T10:03:13.801Z,991.05
2018-09-05T10:04:13.783Z,991.03
2018-09-05T10:05:13.798Z,991.04
2018-09-05T10:06:13.760Z,991.03
2018-09-05T10:07:13.817Z,991.03
2018-09-05T10:08:13.744Z,991.05
2018-09-05T10:09:13.732Z,991.02
2018-09-05T10:10:13.921Z,991.02
2018-09-05T10:11:13.746Z,990.99
2018-09-05T10:12:13.715Z,990.97
2018-09-05T10:13:13.695Z,991.02
2018-09-05T10:14:13.678Z,991.00
2018-09-05T10:15:13.669Z,991.02
2018-09-05T10:16:13.660Z,990.99
2018-09-05T10:17:13.789Z,991.03
2018-09-05T10:18:13.659Z,990.95
2018-09-05T10:19:13.631Z,990.96
2018-09-05T10:20:13.619Z,990.90
2018-09-05T10:21:13.609Z,990.91
2018-09-05T10:22:13.603Z,990.90
2018-09-05T10:23:13.606Z,990.91
2018-09-05T10:24:13.615Z,990.86
2018-09-05T10:25:13.574Z,990.85
2018-09-05T10:26:13.560Z,990.81
2018-09-05T10:27:13.555Z,990.82
2018-09-05T10:28:13.556Z,990.78
2018-09-05T10:29:13.532Z,990.82
2018-09-05T10:30:13.540Z,990.80
2018-09-05T10:31:13.520Z,990.79
2018-09-05T10:32:13.516Z,990.84
2018-09-05T10:33:13.532Z,990.84
2018-09-05T10:34:13.482Z,990.81
2018-09-05T10:35:13.472Z,990.86
2018-09-05T10:36:13.459Z,990.84
2018-09-05T10:37:13.450Z,990.81
2018-09-05T10:38:13.455Z,990.84
2018-09-05T10:39:13.435Z,990.83
2018-09-05T10:40:13.497Z,990.79
2018-09-05T10:41:13.440Z,990.79
2018-09-05T10:42:13.401Z,990.76
2018-09-05T10:43:13.568Z,990.77
2018-09-05T10:44:13.476Z,990.78
2018-09-05T10:45:13.373Z,990.79
2018-09-05T10:46:13.364Z,990.78
2018-09-05T10:47:13.369Z,990.73
2018-09-05T10:48:13.403Z,990.70
2018-09-05T10:49:13.352Z,990.69
2018-09-05T10:50:13.335Z,990.71
2018-09-05T10:51:13.407Z,990.70
2018-09-05T10:52:13.314Z,990.73
2018-09-05T10:53:13.318Z,990.71
2018-09-05T10:54:13.306Z,990.74
2018-09-05T10:55:13.282Z,990.69
2018-09-05T10:56:13.445Z,990.72
2018-09-05T10:57:13.279Z,990.68
2018-09-05T10:58:13.309Z,990.67
2018-09-05T10:59:13.303Z,990.65
2018-09-05T11:00:13.231Z,990.67
2018-09-05T11:01:13.227Z,990.68
2018-09-05T11:02:13.294Z,990.63
2018-09-05T11:03:13.234Z,990.60
2018-09-05T11:04:13.242Z,990.61
2018-09-05T11:05:13.198Z,990.59
2018-09-05T11:06:13.199Z,990.62
2018-09-05T11:07:13.175Z,990.59
2018-09-05T11:08:13.150Z,990.63
2018-09-05T11:09:13.174Z,990.61
2018-09-05T11:10:13.169Z,990.63
2018-09-05T11:11:13.119Z,990.59
2018-09-05T11:12:13.111Z,990.56
2018-09-05T11:13:13.101Z,990.62
2018-09-05T11:14:13.108Z,990.59
2018-09-05T11:15:13.091Z,990.54
2018-09-05T11:16:13.083Z,990.54
2018-09-05T11:17:13.076Z,990.46
2018-09-05T11:18:13.054Z,990.47
2018-09-05T11:19:13.059Z,990.46
2018-09-05T11:20:13.040Z,990.49
2018-09-05T11:21:13.076Z,990.47
2018-09-05T11:22:13.017Z,990.46
2018-09-05T11:23:13.016Z,990.42
2018-09-05T11:24:13.102Z,990.41
2018-09-05T11:25:13.188Z,990.42
2018-09-05T11:26:12.979Z,990.37
2018-09-05T11:27:12.971Z,990.40
2018-09-05T11:28:13.024Z,990.41
2018-09-05T11:29:12.984Z,990.38
2018-09-05T11:30:12.952Z,990.40
2018-09-05T11:31:12.941Z,990.38
2018-09-05T11:32:12.955Z,990.38
2018-09-05T11:33:12.934Z,990.34
2018-09-05T11:34:12.926Z,990.34
2018-09-05T11:35:12.909Z,990.31
2018-09-05T11:36:12.879Z,990.38
2018-09-05T11:37:12.904Z,990.35
2018-09-05T11:38:12.861Z,990.37
2018-09-05T11:39:12.862Z,990.34
2018-09-05T11:40:12.870Z,990.35
2018-09-05T11:41:12.830Z,990.28
2018-09-05T11:42:12.819Z,990.28
2018-09-05T11:43:12.809Z,990.31
2018-09-05T11:44:12.831Z,990.30
2018-09-05T11:45:12.816Z,990.29
2018-09-05T11:46:12.780Z,990.28
2018-09-05T11:47:12.779Z,990.27
2018-09-05T11:48:12.758Z,990.31
2018-09-05T11:49:12.778Z,990.20
2018-09-05T11:50:12.757Z,990.28
2018-09-05T11:51:12.763Z,990.27
2018-09-05T11:52:12.718Z,990.27
2018-09-05T11:53:12.707Z,990.20
2018-09-05T11:54:12.699Z,990.21
2018-09-05T11:55:12.703Z,990.22
2018-09-05T11:56:12.677Z,990.16
2018-09-05T11:57:12.741Z,990.19
2018-09-05T11:58:12.656Z,990.17
2018-09-05T11:59:12.645Z,990.16
2018-09-05T12:00:12.648Z,990.17
2018-09-05T12:01:12.631Z,990.14
2018-09-05T12:02:12.657Z,990.14
2018-09-05T12:03:12.628Z,990.12
2018-09-05T12:04:12.621Z,990.06
2018-09-05T12:05:12.600Z,990.06
2018-09-05T12:06:12.575Z,990.09
2018-09-05T12:07:12.630Z,990.05
2018-09-05T12:08:12.555Z,990.10
2018-09-05T12:09:12.577Z,990.04
2018-09-05T12:10:12.548Z,990.08
2018-09-05T12:11:12.523Z,990.05
2018-09-05T12:12:12.570Z,990.06
2018-09-05T12:13:12.503Z,990.05
2018-09-05T12:14:12.492Z,990.06
2018-09-05T12:15:12.517Z,990.04
2018-09-05T12:16:12.471Z,990.03
2018-09-05T12:17:12.460Z,990.02
2018-09-05T12:18:12.451Z,990.02
2018-09-05T12:19:12.439Z,989.99
2018-09-05T12:20:12.478Z,989.96
2018-09-05T12:21:12.444Z,989.92
2018-09-05T12:22:12.412Z,989.95
2018-09-05T12:23:12.400Z,989.92
2018-09-05T12:24:12.392Z,989.97
2018-09-05T12:25:12.400Z,989.96
2018-09-05T12:26:12.368Z,989.93
2018-09-05T12:27:12.383Z,989.92
2018-09-05T12:28:12.382Z,989.92